Time;durP1;ratioP1;P1;durP2;ratioP2;P2;SDS_P1;SDS_P2;PMS_P1;PMS_P2;Temp;Humidity;BMP_temperature;BMP_pressure;BME280_temperature;BME280_humidity;BME280_pressure;Samples;Min_cycle;Max_cycle;Signal;HPM_P1;HPM_P2
2022/11/27 00:01:23;;;;;;;;;;;;;;;;;;5083485;28;19928;-68
2022/11/27 00:03:49;;;;;;;;;;;;;;;;;;5081422;28;20009;-69
2022/11/27 00:06:15;;;;;;;;;;;;;;;;;;5081352;28;19978;-69
2022/11/27 00:08:41;;;;;;;;;;;;;;;;;;5080392;28;19932;-67
2022/11/27 00:11:11;;;;;;;;;;;;;;;;;;5084648;28;19928;-69
2022/11/27 00:13:36;;;;;;;;;;;;;;;;;;5085586;28;20283;-68
2022/11/27 00:16:02;;;;;;;;;;;;;;;;;;5080843;28;19924;-68
2022/11/27 00:18:28;;;;;;;;;;;;;;;;;;5084835;28;19935;-68
2022/11/27 00:20:53;;;;;;;;;;;;;;;;;;5084136;28;20323;-70
2022/11/27 00:23:18;;;;;;;;;;;;;;;;;;5082912;28;19942;-68
2022/11/27 00:25:51;;;;;;;;;;;;;;;;;;5079803;28;20448;-66
2022/11/27 00:28:16;;;;;;;;;;;;;;;;;;5084931;28;20007;-67
2022/11/27 00:30:41;;;;;;;;;;;;;;;;;;5066390;28;19926;-70
2022/11/27 00:33:07;;;;;;;;;;;;;;;;;;5081342;28;20522;-66
2022/11/27 00:35:32;;;;;;;;;;;;;;;;;;5081388;28;19927;-68
2022/11/27 00:37:57;;;;;;;;;;;;;;;;;;5085038;28;20353;-66
2022/11/27 00:40:22;;;;;;;;;;;;;;;;;;5082902;28;19926;-67
2022/11/27 00:42:48;;;;;;;;;;;;;;;;;;5082572;28;19929;-67
2022/11/27 00:45:13;;;;;;;;;;;;;;;;;;5076707;28;20259;-70
2022/11/27 00:47:38;;;;;;;;;;;;;;;;;;5079810;28;19924;-67
2022/11/27 00:50:04;;;;;;;;;;;;;;;;;;5074716;28;19930;-67
2022/11/27 00:52:29;;;;;;;;;;;;;;;;;;5081960;28;20026;-69
2022/11/27 00:54:54;;;;;;;;;;;;;;;;;;5079560;28;19920;-68
2022/11/27 00:57:20;;;;;;;;;;;;;;;;;;5084380;28;20011;-68
2022/11/27 00:59:45;;;;;;;;;;;;;;;;;;5083227;28;20304;-67
2022/11/27 01:02:10;;;;;;;;;;;;;;;;;;5081861;28;19982;-70
2022/11/27 01:04:35;;;;;;;;;;;;;;;;;;5080144;27;19920;-68
2022/11/27 01:07:01;;;;;;;;;;;;;;;;;;5081567;28;20714;-69
2022/11/27 01:09:26;;;;;;;;;;;;;;;;;;5081289;28;19934;-68
2022/11/27 01:11:51;;;;;;;;;;;;;;;;;;5080896;28;20667;-68
2022/11/27 01:14:17;;;;;;;;;;;;;;;;;;5081095;28;19931;-66
2022/11/27 01:16:42;;;;;;;;;;;;;;;;;;5080442;28;19939;-70
2022/11/27 01:19:08;;;;;;;;;;;;;;;;;;5082425;28;20295;-67
2022/11/27 01:21:34;;;;;;;;;;;;;;;;;;5082943;28;20034;-68
2022/11/27 01:24:00;;;;;;;;;;;;;;;;;;5078118;28;20015;-69
2022/11/27 01:26:26;;;;;;;;;;;;;;;;;;5081544;28;19924;-68
2022/11/27 01:28:52;;;;;;;;;;;;;;;;;;5081738;28;19986;-68
2022/11/27 01:31:19;;;;;;;;;;;;;;;;;;5080524;28;19916;-73
2022/11/27 01:33:44;;;;;;;;;;;;;;;;;;5080556;28;19927;-70
2022/11/27 01:36:10;;;;;;;;;;;;;;;;;;5083154;28;19924;-67
2022/11/27 01:38:36;;;;;;;;;;;;;;;;;;5078463;28;20307;-67
2022/11/27 01:41:08;;;;;;;;;;;;;;;;;;5084458;28;20299;-68
2022/11/27 01:43:36;;;;;;;;;;;;;;;;;;5081165;28;19929;-68
2022/11/27 01:46:01;;;;;;;;;;;;;;;;;;5082101;28;20437;-67
2022/11/27 01:48:26;;;;;;;;;;;;;;;;;;5083984;28;19928;-70
2022/11/27 01:50:51;;;;;;;;;;;;;;;;;;5084682;28;20299;-67
2022/11/27 01:53:18;;;;;;;;;;;;;;;;;;5077870;28;19934;-68
2022/11/27 01:55:45;;;;;;;;;;;;;;;;;;5084090;27;19923;-67
2022/11/27 01:58:13;;;;;;;;;;;;;;;;;;5083742;28;20300;-66
2022/11/27 02:00:39;;;;;;;;;;;;;;;;;;5084000;28;19928;-71
2022/11/27 02:03:04;;;;;;;;;;;;;;;;;;5075206;28;19930;-69
2022/11/27 02:05:30;;;;;;;;;;;;;;;;;;5075055;28;20293;-70
2022/11/27 02:07:56;;;;;;;;;;;;;;;;;;5082291;28;19928;-72
2022/11/27 02:10:24;;;;;;;;;;;;;;;;;;5080875;28;20402;-74
2022/11/27 02:12:52;;;;;;;;;;;;;;;;;;5082330;28;19943;-69
2022/11/27 02:15:24;;;;;;;;;;;;;;;;;;5082463;28;19935;-71
2022/11/27 02:18:01;;;;;;;;;;;;;;;;;;5085600;28;20319;-71
2022/11/27 02:20:30;;;;;;;;;;;;;;;;;;5077640;28;20383;-70
2022/11/27 02:23:14;;;;;;;;;;;;;;;;;;5077818;28;20847;-70
2022/11/27 02:25:51;;;;;;;;;;;;;;;;;;5082591;28;19928;-70
2022/11/27 02:28:38;;;;;;;;;;;;;;;;;;5080083;28;19982;-70
2022/11/27 02:31:12;;;;;;;;;;;;;;;;;;5082786;28;20016;-70
2022/11/27 02:33:40;;;;;;;;;;;;;;;;;;5078696;28;20018;-70
2022/11/27 02:36:08;;;;;;;;;;;;;;;;;;5084675;28;19924;-70
2022/11/27 02:38:37;;;;;;;;;;;;;;;;;;5079094;28;19927;-70
2022/11/27 02:41:11;;;;;;;;;;;;;;;;;;5080914;28;19989;-70
2022/11/27 02:43:43;;;;;;;;;;;;;;;;;;5079674;28;19933;-70
2022/11/27 02:46:09;;;;;;;;;;;;;;;;;;5080276;28;19920;-70
2022/11/27 02:48:37;;;;;;;;;;;;;;;;;;5082945;28;19970;-70
2022/11/27 02:51:04;;;;;;;;;;;;;;;;;;5082188;28;19951;-70
2022/11/27 02:53:36;;;;;;;;;;;;;;;;;;5085224;28;20384;-70
2022/11/27 02:56:02;;;;;;;;;;;;;;;;;;5078444;28;20007;-70
2022/11/27 02:58:27;;;;;;;;;;;;;;;;;;5081053;28;20027;-70
2022/11/27 03:00:54;;;;;;;;;;;;;;;;;;5081765;28;21449;-71
2022/11/27 03:03:28;;;;;;;;;;;;;;;;;;5078434;28;20285;-70
2022/11/27 03:05:57;;;;;;;;;;;;;;;;;;5077387;28;20296;-70
2022/11/27 03:08:22;;;;;;;;;;;;;;;;;;5080729;28;19925;-73
2022/11/27 03:10:47;;;;;;;;;;;;;;;;;;5078279;28;20418;-71
2022/11/27 03:13:13;;;;;;;;;;;;;;;;;;5084156;28;20034;-70
2022/11/27 03:15:40;;;;;;;;;;;;;;;;;;5081515;28;19932;-71
2022/11/27 03:18:12;;;;;;;;;;;;;;;;;;5082910;28;19958;-72
2022/11/27 03:20:40;;;;;;;;;;;;;;;;;;5079348;28;19939;-71
2022/11/27 03:23:05;;;;;;;;;;;;;;;;;;5076333;28;19946;-71
2022/11/27 03:25:31;;;;;;;;;;;;;;;;;;5079873;28;19928;-70
2022/11/27 03:28:04;;;;;;;;;;;;;;;;;;5078372;28;20039;-70
2022/11/27 03:30:30;;;;;;;;;;;;;;;;;;5080034;28;19928;-71
2022/11/27 03:32:56;;;;;;;;;;;;;;;;;;5077432;28;19951;-70
2022/11/27 03:35:23;;;;;;;;;;;;;;;;;;5078611;28;19928;-71
2022/11/27 03:37:49;;;;;;;;;;;;;;;;;;5079082;28;20421;-70
2022/11/27 03:40:15;;;;;;;;;;;;;;;;;;5079152;28;19928;-71
2022/11/27 03:42:58;;;;;;;;;;;;;;;;;;5075947;28;19928;-70
2022/11/27 03:45:23;;;;;;;;;;;;;;;;;;5079653;28;19936;-70
2022/11/27 03:47:48;;;;;;;;;;;;;;;;;;5082650;28;20017;-69
2022/11/27 03:50:13;;;;;;;;;;;;;;;;;;5081494;28;19930;-70
2022/11/27 03:52:48;;;;;;;;;;;;;;;;;;5081044;28;19932;-70
2022/11/27 03:55:21;;;;;;;;;;;;;;;;;;5081860;28;20900;-71
2022/11/27 03:57:54;;;;;;;;;;;;;;;;;;5087557;28;19986;-71
2022/11/27 04:00:19;;;;;;;;;;;;;;;;;;5082195;28;20337;-70
2022/11/27 04:02:46;;;;;;;;;;;;;;;;;;5082119;28;19932;-71
2022/11/27 04:05:11;;;;;;;;;;;;;;;;;;5083431;28;19932;-72
2022/11/27 04:07:37;;;;;;;;;;;;;;;;;;5078393;28;19943;-70
2022/11/27 04:10:03;;;;;;;;;;;;;;;;;;5082306;28;19955;-70
2022/11/27 04:12:28;;;;;;;;;;;;;;;;;;5089765;28;19946;-76
2022/11/27 04:14:54;;;;;;;;;;;;;;;;;;5087073;28;19925;-70
2022/11/27 04:17:19;;;;;;;;;;;;;;;;;;5082097;28;20289;-70
2022/11/27 04:19:44;;;;;;;;;;;;;;;;;;5083513;28;20048;-70
2022/11/27 04:22:09;;;;;;;;;;;;;;;;;;5090046;28;20261;-70
2022/11/27 04:24:35;;;;;;;;;;;;;;;;;;5077918;28;20007;-70
2022/11/27 04:27:00;;;;;;;;;;;;;;;;;;5083359;28;20342;-70
2022/11/27 04:29:25;;;;;;;;;;;;;;;;;;5081225;28;19928;-71
2022/11/27 04:31:51;;;;;;;;;;;;;;;;;;5079201;28;20298;-73
2022/11/27 04:34:16;;;;;;;;;;;;;;;;;;5085180;28;20340;-70
2022/11/27 04:36:41;;;;;;;;;;;;;;;;;;5081506;28;19934;-71
2022/11/27 04:39:06;;;;;;;;;;;;;;;;;;5083628;28;19924;-70
2022/11/27 04:41:32;;;;;;;;;;;;;;;;;;5081427;28;20528;-71
2022/11/27 04:43:57;;;;;;;;;;;;;;;;;;5081341;28;19974;-72
2022/11/27 04:46:22;;;;;;;;;;;;;;;;;;5084568;28;19979;-71
2022/11/27 04:48:48;;;;;;;;;;;;;;;;;;5083008;28;20018;-75
2022/11/27 04:51:13;;;;;;;;;;;;;;;;;;5086899;28;20418;-71
2022/11/27 04:53:38;;;;;;;;;;;;;;;;;;5082474;28;20029;-70
2022/11/27 04:56:03;;;;;;;;;;;;;;;;;;5083313;28;19938;-70
2022/11/27 04:58:29;;;;;;;;;;;;;;;;;;5076822;28;19971;-70
2022/11/27 05:00:54;;;;;;;;;;;;;;;;;;5083735;28;19921;-70
2022/11/27 05:03:19;;;;;;;;;;;;;;;;;;5085069;28;19929;-70
2022/11/27 05:05:45;;;;;;;;;;;;;;;;;;5081285;28;20010;-70
2022/11/27 05:08:10;;;;;;;;;;;;;;;;;;5079008;28;20361;-72
2022/11/27 05:10:35;;;;;;;;;;;;;;;;;;5083460;28;19969;-70
2022/11/27 05:13:00;;;;;;;;;;;;;;;;;;5088115;28;19979;-69
2022/11/27 05:15:26;;;;;;;;;;;;;;;;;;5082812;28;19939;-70
2022/11/27 05:17:51;;;;;;;;;;;;;;;;;;5082971;28;20406;-70
2022/11/27 05:20:16;;;;;;;;;;;;;;;;;;5083414;28;19934;-70
2022/11/27 05:22:43;;;;;;;;;;;;;;;;;;5079215;28;19924;-70
2022/11/27 05:25:08;;;;;;;;;;;;;;;;;;5078191;28;20360;-75
2022/11/27 05:27:33;;;;;;;;;;;;;;;;;;5080009;28;20014;-70
2022/11/27 05:29:59;;;;;;;;;;;;;;;;;;5080345;28;19964;-70
2022/11/27 05:32:24;;;;;;;;;;;;;;;;;;5077252;28;19952;-70
2022/11/27 05:34:49;;;;;;;;;;;;;;;;;;5080913;28;20065;-71
2022/11/27 05:37:14;;;;;;;;;;;;;;;;;;5078909;28;20984;-70
2022/11/27 05:39:40;;;;;;;;;;;;;;;;;;5083174;28;19973;-70
2022/11/27 05:42:05;;;;;;;;;;;;;;;;;;5082453;28;19928;-73
2022/11/27 05:44:30;;;;;;;;;;;;;;;;;;5082677;28;20307;-70
2022/11/27 05:46:56;;;;;;;;;;;;;;;;;;5082223;28;19960;-70
2022/11/27 05:49:21;;;;;;;;;;;;;;;;;;5084496;28;20449;-70
2022/11/27 05:51:46;;;;;;;;;;;;;;;;;;5086149;28;19924;-70
2022/11/27 05:54:12;;;;;;;;;;;;;;;;;;5085957;28;19981;-71
2022/11/27 05:56:37;;;;;;;;;;;;;;;;;;5078719;28;20296;-70
2022/11/27 05:59:02;;;;;;;;;;;;;;;;;;5075911;28;19924;-70
2022/11/27 06:01:28;;;;;;;;;;;;;;;;;;5077169;28;20278;-71
2022/11/27 06:03:53;;;;;;;;;;;;;;;;;;5082257;28;20390;-71
2022/11/27 06:06:18;;;;;;;;;;;;;;;;;;5082850;28;19992;-71
2022/11/27 06:08:44;;;;;;;;;;;;;;;;;;5080968;28;19924;-70
2022/11/27 06:11:11;;;;;;;;;;;;;;;;;;5088604;27;19970;-70
2022/11/27 06:13:36;;;;;;;;;;;;;;;;;;5083887;28;20372;-70
2022/11/27 06:16:10;;;;;;;;;;;;;;;;;;5081317;28;19927;-71
2022/11/27 06:18:36;;;;;;;;;;;;;;;;;;5077766;28;19928;-70
2022/11/27 06:21:04;;;;;;;;;;;;;;;;;;5069178;28;19928;-70
2022/11/27 06:23:29;;;;;;;;;;;;;;;;;;5082410;28;19924;-70
2022/11/27 06:25:55;;;;;;;;;;;;;;;;;;5084587;28;19935;-70
2022/11/27 06:28:20;;;;;;;;;;;;;;;;;;5085735;28;20022;-74
2022/11/27 06:30:45;;;;;;;;;;;;;;;;;;5078306;28;19929;-71
2022/11/27 06:33:11;;;;;;;;;;;;;;;;;;5082954;28;20316;-71
2022/11/27 06:35:36;;;;;;;;;;;;;;;;;;5084371;28;19931;-70
2022/11/27 06:38:01;;;;;;;;;;;;;;;;;;5079586;28;20368;-72
2022/11/27 06:40:27;;;;;;;;;;;;;;;;;;5081219;28;19942;-72
2022/11/27 06:42:53;;;;;;;;;;;;;;;;;;5082713;28;19924;-74
2022/11/27 06:45:18;;;;;;;;;;;;;;;;;;5083686;28;20136;-70
2022/11/27 06:47:44;;;;;;;;;;;;;;;;;;5077807;28;19929;-70
2022/11/27 06:50:09;;;;;;;;;;;;;;;;;;5081357;28;20418;-70
2022/11/27 06:52:35;;;;;;;;;;;;;;;;;;5084587;28;19943;-69
2022/11/27 06:55:00;;;;;;;;;;;;;;;;;;5080641;28;19923;-70
2022/11/27 06:57:25;;;;;;;;;;;;;;;;;;5083525;28;20292;-71
2022/11/27 06:59:50;;;;;;;;;;;;;;;;;;5081444;28;20390;-70
2022/11/27 07:02:16;;;;;;;;;;;;;;;;;;5079602;28;19977;-71
2022/11/27 07:04:41;;;;;;;;;;;;;;;;;;5080899;28;19928;-73
2022/11/27 07:07:06;;;;;;;;;;;;;;;;;;5082980;28;19924;-70
2022/11/27 07:09:31;;;;;;;;;;;;;;;;;;5076703;28;20003;-71
2022/11/27 07:11:57;;;;;;;;;;;;;;;;;;5081683;28;19929;-71
2022/11/27 07:14:22;;;;;;;;;;;;;;;;;;5082072;28;19970;-79
2022/11/27 07:16:47;;;;;;;;;;;;;;;;;;5078124;28;20377;-70
2022/11/27 07:19:13;;;;;;;;;;;;;;;;;;5083359;28;19924;-77
2022/11/27 07:21:38;;;;;;;;;;;;;;;;;;5081448;28;20383;-71
2022/11/27 07:24:04;;;;;;;;;;;;;;;;;;5079227;28;19990;-68
2022/11/27 07:26:29;;;;;;;;;;;;;;;;;;5081744;28;19928;-71
2022/11/27 07:28:55;;;;;;;;;;;;;;;;;;5081971;28;19935;-71
2022/11/27 07:31:21;;;;;;;;;;;;;;;;;;5081301;28;20038;-70
2022/11/27 07:33:47;;;;;;;;;;;;;;;;;;5079974;28;20023;-70
2022/11/27 07:36:13;;;;;;;;;;;;;;;;;;5081293;28;20023;-70
2022/11/27 07:38:39;;;;;;;;;;;;;;;;;;5082091;28;19937;-71
2022/11/27 07:41:05;;;;;;;;;;;;;;;;;;5085301;28;19920;-74
2022/11/27 07:43:31;;;;;;;;;;;;;;;;;;5086830;28;20345;-70
2022/11/27 07:45:56;;;;;;;;;;;;;;;;;;5080483;28;19935;-68
2022/11/27 07:48:22;;;;;;;;;;;;;;;;;;5086337;28;19924;-69
2022/11/27 07:50:47;;;;;;;;;;;;;;;;;;5085801;28;20466;-71
2022/11/27 07:53:12;;;;;;;;;;;;;;;;;;5087282;27;20242;-70
2022/11/27 07:55:38;;;;;;;;;;;;;;;;;;5084708;28;19924;-74
2022/11/27 07:58:04;;;;;;;;;;;;;;;;;;5086916;28;19923;-69
2022/11/27 08:00:29;;;;;;;;;;;;;;;;;;5084025;28;20017;-70
2022/11/27 08:02:54;;;;;;;;;;;;;;;;;;5088606;28;19951;-70
2022/11/27 08:05:20;;;;;;;;;;;;;;;;;;5083308;28;19932;-69
2022/11/27 08:07:45;;;;;;;;;;;;;;;;;;5082749;28;19932;-70
2022/11/27 08:10:10;;;;;;;;;;;;;;;;;;5085548;28;19924;-71
2022/11/27 08:12:35;;;;;;;;;;;;;;;;;;5082015;28;19954;-70
2022/11/27 08:15:03;;;;;;;;;;;;;;;;;;5095698;28;20353;-70
2022/11/27 08:17:28;;;;;;;;;;;;;;;;;;5088539;28;19930;-78
2022/11/27 08:19:54;;;;;;;;;;;;;;;;;;5085939;28;19928;-71
2022/11/27 08:22:19;;;;;;;;;;;;;;;;;;5082660;28;19947;-70
2022/11/27 08:24:46;;;;;;;;;;;;;;;;;;5085924;28;21185;-70
2022/11/27 08:27:12;;;;;;;;;;;;;;;;;;5084292;28;19924;-69
2022/11/27 08:29:38;;;;;;;;;;;;;;;;;;5084136;28;19931;-78
2022/11/27 08:32:03;;;;;;;;;;;;;;;;;;5085428;28;19925;-70
2022/11/27 08:34:29;;;;;;;;;;;;;;;;;;5084745;28;20029;-72
2022/11/27 08:36:54;;;;;;;;;;;;;;;;;;5096485;28;19920;-70
2022/11/27 08:39:19;;;;;;;;;;;;;;;;;;5083827;28;19970;-71
2022/11/27 08:41:45;;;;;;;;;;;;;;;;;;5085088;28;20000;-70
2022/11/27 08:44:10;;;;;;;;;;;;;;;;;;5086958;28;20039;-69
2022/11/27 08:46:35;;;;;;;;;;;;;;;;;;5083249;28;20485;-70
2022/11/27 08:49:00;;;;;;;;;;;;;;;;;;5085456;28;19924;-70
2022/11/27 08:51:26;;;;;;;;;;;;;;;;;;5086179;28;19928;-71
2022/11/27 08:53:51;;;;;;;;;;;;;;;;;;5085238;28;20296;-71
2022/11/27 08:56:17;;;;;;;;;;;;;;;;;;5082875;28;20293;-69
2022/11/27 08:58:43;;;;;;;;;;;;;;;;;;5086428;28;19928;-68
2022/11/27 09:01:11;;;;;;;;;;;;;;;;;;5085212;28;19999;-70
2022/11/27 09:03:36;;;;;;;;;;;;;;;;;;5082823;28;20316;-70
2022/11/27 09:06:04;;;;;;;;;;;;;;;;;;5082470;28;19954;-73
2022/11/27 09:08:29;;;;;;;;;;;;;;;;;;5082553;28;20588;-69
2022/11/27 09:10:59;;;;;;;;;;;;;;;;;;5081579;28;19924;-74
2022/11/27 09:13:24;;;;;;;;;;;;;;;;;;5083633;28;19933;-73
2022/11/27 09:15:49;;;;;;;;;;;;;;;;;;5082637;28;20390;-69
2022/11/27 09:18:14;;;;;;;;;;;;;;;;;;5083880;28;19952;-69
2022/11/27 09:20:40;;;;;;;;;;;;;;;;;;5085056;28;20020;-69
2022/11/27 09:23:05;;;;;;;;;;;;;;;;;;5084451;28;20228;-71
2022/11/27 09:25:30;;;;;;;;;;;;;;;;;;5081406;28;19924;-72
2022/11/27 09:27:56;;;;;;;;;;;;;;;;;;5084606;28;19932;-70
2022/11/27 09:30:21;;;;;;;;;;;;;;;;;;5084571;28;20007;-69
2022/11/27 09:32:46;;;;;;;;;;;;;;;;;;5086209;28;19928;-73
2022/11/27 09:35:12;;;;;;;;;;;;;;;;;;5089478;27;19928;-69
2022/11/27 09:37:37;;;;;;;;;;;;;;;;;;5080959;28;19936;-69
2022/11/27 09:40:03;;;;;;;;;;;;;;;;;;5085098;28;19973;-69
2022/11/27 09:42:36;;;;;;;;;;;;;;;;;;5085712;28;20383;-68
2022/11/27 09:45:03;;;;;;;;;;;;;;;;;;5094157;28;20017;-70
2022/11/27 09:47:37;;;;;;;;;;;;;;;;;;5081643;28;19935;-69
2022/11/27 09:50:13;;;;;;;;;;;;;;;;;;5096743;28;19994;-69
2022/11/27 09:52:40;;;;;;;;;;;;;;;;;;5087432;28;19924;-69
2022/11/27 09:55:08;;;;;;;;;;;;;;;;;;5079735;28;20269;-70
2022/11/27 09:57:35;;;;;;;;;;;;;;;;;;5084830;28;19930;-72
2022/11/27 10:00:04;;;;;;;;;;;;;;;;;;5083997;28;19928;-69
2022/11/27 10:02:30;;;;;;;;;;;;;;;;;;5083923;28;20376;-70
2022/11/27 10:04:56;;;;;;;;;;;;;;;;;;5082249;28;20452;-72
2022/11/27 10:07:32;;;;;;;;;;;;;;;;;;5080967;28;19971;-71
2022/11/27 10:10:14;;;;;;;;;;;;;;;;;;5081812;28;19927;-69
2022/11/27 10:12:46;;;;;;;;;;;;;;;;;;5080181;28;20335;-69
2022/11/27 10:15:26;;;;;;;;;;;;;;;;;;5078374;28;20066;-69
2022/11/27 10:18:00;;;;;;;;;;;;;;;;;;5083944;28;19935;-70
2022/11/27 10:20:31;;;;;;;;;;;;;;;;;;5080463;28;19931;-70
2022/11/27 10:23:16;;;;;;;;;;;;;;;;;;5082720;28;19976;-70
2022/11/27 10:25:48;;;;;;;;;;;;;;;;;;5083406;27;20569;-68
2022/11/27 10:28:31;;;;;;;;;;;;;;;;;;5080992;28;19928;-68
2022/11/27 10:31:01;;;;;;;;;;;;;;;;;;5079341;28;20315;-69
2022/11/27 10:33:37;;;;;;;;;;;;;;;;;;5081245;28;19921;-69
2022/11/27 10:36:02;;;;;;;;;;;;;;;;;;5076254;28;19924;-70
2022/11/27 10:38:39;;;;;;;;;;;;;;;;;;5084749;28;19951;-70
2022/11/27 10:41:15;;;;;;;;;;;;;;;;;;5085249;28;19928;-70
2022/11/27 10:43:41;;;;;;;;;;;;;;;;;;5080462;28;20400;-71
2022/11/27 10:46:22;;;;;;;;;;;;;;;;;;5079926;28;19924;-68
2022/11/27 10:48:47;;;;;;;;;;;;;;;;;;5077773;28;19931;-70
2022/11/27 10:51:29;;;;;;;;;;;;;;;;;;5077103;28;19932;-69
2022/11/27 10:53:55;;;;;;;;;;;;;;;;;;5081354;28;20284;-70
2022/11/27 10:56:20;;;;;;;;;;;;;;;;;;5084376;28;19929;-69
2022/11/27 10:59:00;;;;;;;;;;;;;;;;;;5073587;28;20408;-69
2022/11/27 11:01:27;;;;;;;;;;;;;;;;;;5054273;28;20358;-70
2022/11/27 11:04:05;;;;;;;;;;;;;;;;;;5074415;28;20502;-68
2022/11/27 11:06:31;;;;;;;;;;;;;;;;;;5075502;28;19963;-69
2022/11/27 11:09:04;;;;;;;;;;;;;;;;;;5078917;28;19924;-69
2022/11/27 11:11:29;;;;;;;;;;;;;;;;;;5076715;28;20305;-70
2022/11/27 11:13:55;;;;;;;;;;;;;;;;;;5077996;28;20386;-70
2022/11/27 11:16:23;;;;;;;;;;;;;;;;;;5075032;28;19934;-70
2022/11/27 11:18:52;;;;;;;;;;;;;;;;;;5078565;28;19916;-71
2022/11/27 11:21:36;;;;;;;;;;;;;;;;;;5062434;28;22014;-70
2022/11/27 11:24:03;;;;;;;;;;;;;;;;;;5083130;28;20014;-68
2022/11/27 11:26:30;;;;;;;;;;;;;;;;;;5080330;28;19928;-70
2022/11/27 11:28:57;;;;;;;;;;;;;;;;;;5086786;28;20052;-73
2022/11/27 11:31:27;;;;;;;;;;;;;;;;;;5081615;28;19924;-69
2022/11/27 11:33:58;;;;;;;;;;;;;;;;;;5085660;28;19958;-74
2022/11/27 11:36:23;;;;;;;;;;;;;;;;;;5084743;28;19949;-69
2022/11/27 11:38:48;;;;;;;;;;;;;;;;;;5086353;28;20052;-77
2022/11/27 11:41:16;;;;;;;;;;;;;;;;;;5083926;28;19928;-72
2022/11/27 11:43:51;;;;;;;;;;;;;;;;;;5080692;28;19928;-69
2022/11/27 11:46:18;;;;;;;;;;;;;;;;;;5079401;28;19966;-70
2022/11/27 11:48:54;;;;;;;;;;;;;;;;;;5078563;28;19939;-69
2022/11/27 11:51:42;;;;;;;;;;;;;;;;;;5079393;28;20328;-73
2022/11/27 11:54:26;;;;;;;;;;;;;;;;;;5076871;28;19928;-70
2022/11/27 11:56:51;;;;;;;;;;;;;;;;;;5070865;28;20392;-69
2022/11/27 11:59:17;;;;;;;;;;;;;;;;;;5071446;28;19938;-69
2022/11/27 12:02:01;;;;;;;;;;;;;;;;;;5078930;28;19955;-71
2022/11/27 12:04:45;;;;;;;;;;;;;;;;;;5083022;28;19924;-69
2022/11/27 12:07:28;;;;;;;;;;;;;;;;;;5082202;28;20292;-70
2022/11/27 12:10:03;;;;;;;;;;;;;;;;;;5083874;28;20019;-78
2022/11/27 12:12:46;;;;;;;;;;;;;;;;;;5080264;28;20299;-71
2022/11/27 12:15:33;;;;;;;;;;;;;;;;;;5078292;28;19934;-70
2022/11/27 12:18:00;;;;;;;;;;;;;;;;;;5085720;28;19936;-69
2022/11/27 12:20:30;;;;;;;;;;;;;;;;;;5086421;28;19925;-69
2022/11/27 12:23:16;;;;;;;;;;;;;;;;;;5083668;28;19928;-81
2022/11/27 12:25:55;;;;;;;;;;;;;;;;;;5082099;28;19947;-68
2022/11/27 12:28:36;;;;;;;;;;;;;;;;;;5086343;28;19928;-69
2022/11/27 12:31:05;;;;;;;;;;;;;;;;;;5076108;28;19928;-70
2022/11/27 12:33:39;;;;;;;;;;;;;;;;;;5086406;28;19924;-68
2022/11/27 12:36:14;;;;;;;;;;;;;;;;;;5083634;28;19931;-69
2022/11/27 12:38:51;;;;;;;;;;;;;;;;;;5085305;28;19935;-69
2022/11/27 12:41:22;;;;;;;;;;;;;;;;;;5086362;28;19939;-69
2022/11/27 12:43:51;;;;;;;;;;;;;;;;;;5078619;28;20491;-67
2022/11/27 12:46:36;;;;;;;;;;;;;;;;;;5076262;28;19999;-79
2022/11/27 12:49:09;;;;;;;;;;;;;;;;;;5080119;28;19928;-69
2022/11/27 12:51:40;;;;;;;;;;;;;;;;;;5079152;28;20285;-69
2022/11/27 12:54:14;;;;;;;;;;;;;;;;;;5064258;28;19932;-79
2022/11/27 12:56:42;;;;;;;;;;;;;;;;;;5068225;28;19925;-81
2022/11/27 12:59:26;;;;;;;;;;;;;;;;;;5082302;28;19935;-69
2022/11/27 13:01:58;;;;;;;;;;;;;;;;;;5078930;28;19932;-73
2022/11/27 13:04:26;;;;;;;;;;;;;;;;;;5072553;28;20430;-73
2022/11/27 13:07:02;;;;;;;;;;;;;;;;;;5074523;28;20307;-68
2022/11/27 13:09:36;;;;;;;;;;;;;;;;;;5076955;28;19924;-69
2022/11/27 13:12:02;;;;;;;;;;;;;;;;;;5075941;28;19928;-71
2022/11/27 13:14:28;;;;;;;;;;;;;;;;;;5074827;28;19947;-68
2022/11/27 13:17:04;;;;;;;;;;;;;;;;;;5075897;28;19936;-72
2022/11/27 13:19:35;;;;;;;;;;;;;;;;;;5075468;28;19981;-71
2022/11/27 13:22:05;;;;;;;;;;;;;;;;;;5069630;28;20016;-69
2022/11/27 13:24:30;;;;;;;;;;;;;;;;;;5069323;28;20695;-69
2022/11/27 13:27:11;;;;;;;;;;;;;;;;;;5071509;28;19932;-69
2022/11/27 13:29:39;;;;;;;;;;;;;;;;;;5078297;28;19938;-69
2022/11/27 13:32:05;;;;;;;;;;;;;;;;;;5071786;28;20452;-71
2022/11/27 13:34:32;;;;;;;;;;;;;;;;;;5075011;28;19963;-70
2022/11/27 13:37:03;;;;;;;;;;;;;;;;;;5063104;28;20520;-71
2022/11/27 13:39:30;;;;;;;;;;;;;;;;;;5060554;28;20419;-70
2022/11/27 13:41:59;;;;;;;;;;;;;;;;;;5062801;28;19978;-70
2022/11/27 13:44:25;;;;;;;;;;;;;;;;;;5059656;28;20380;-71
2022/11/27 13:46:53;;;;;;;;;;;;;;;;;;5065138;28;19928;-73
2022/11/27 13:49:25;;;;;;;;;;;;;;;;;;5079367;28;19928;-71
2022/11/27 13:51:50;;;;;;;;;;;;;;;;;;5089838;28;19931;-75
2022/11/27 13:54:18;;;;;;;;;;;;;;;;;;5073840;28;19924;-71
2022/11/27 13:56:44;;;;;;;;;;;;;;;;;;5081294;28;19934;-70
2022/11/27 13:59:13;;;;;;;;;;;;;;;;;;5075103;28;19932;-74
2022/11/27 14:01:39;;;;;;;;;;;;;;;;;;5079420;28;19921;-70
2022/11/27 14:04:08;;;;;;;;;;;;;;;;;;5078575;28;19928;-68
2022/11/27 14:06:34;;;;;;;;;;;;;;;;;;5076086;28;19990;-69
2022/11/27 14:09:03;;;;;;;;;;;;;;;;;;5074800;28;20380;-69
2022/11/27 14:11:31;;;;;;;;;;;;;;;;;;5075062;28;20428;-70
2022/11/27 14:13:57;;;;;;;;;;;;;;;;;;5069591;28;19928;-71
2022/11/27 14:16:26;;;;;;;;;;;;;;;;;;5075685;28;19929;-71
2022/11/27 14:18:53;;;;;;;;;;;;;;;;;;5072704;28;20379;-70
2022/11/27 14:21:34;;;;;;;;;;;;;;;;;;5074805;28;19924;-71
2022/11/27 14:24:04;;;;;;;;;;;;;;;;;;5078798;28;20027;-71
2022/11/27 14:26:30;;;;;;;;;;;;;;;;;;5096530;28;20449;-71
2022/11/27 14:28:56;;;;;;;;;;;;;;;;;;5073663;28;19928;-71
2022/11/27 14:31:29;;;;;;;;;;;;;;;;;;5076833;28;19943;-72
2022/11/27 14:33:54;;;;;;;;;;;;;;;;;;5081768;28;19923;-71
2022/11/27 14:36:22;;;;;;;;;;;;;;;;;;5077195;28;19982;-75
2022/11/27 14:38:48;;;;;;;;;;;;;;;;;;5077056;28;20399;-75
2022/11/27 14:41:23;;;;;;;;;;;;;;;;;;5079355;28;19939;-77
2022/11/27 14:43:58;;;;;;;;;;;;;;;;;;5079410;28;19928;-72
2022/11/27 14:46:23;;;;;;;;;;;;;;;;;;5076714;28;19924;-75
2022/11/27 14:48:58;;;;;;;;;;;;;;;;;;5078800;28;20320;-74
2022/11/27 14:51:25;;;;;;;;;;;;;;;;;;5073936;28;19932;-73
2022/11/27 14:53:55;;;;;;;;;;;;;;;;;;5077275;28;19924;-75
2022/11/27 14:56:21;;;;;;;;;;;;;;;;;;5072265;28;19977;-71
2022/11/27 14:58:49;;;;;;;;;;;;;;;;;;5078037;28;19928;-72
2022/11/27 15:01:22;;;;;;;;;;;;;;;;;;5074852;28;20623;-77
2022/11/27 15:03:54;;;;;;;;;;;;;;;;;;5075092;28;20023;-78
2022/11/27 15:06:19;;;;;;;;;;;;;;;;;;5079066;28;19932;-74
2022/11/27 15:08:45;;;;;;;;;;;;;;;;;;5075151;28;19936;-75
2022/11/27 15:11:13;;;;;;;;;;;;;;;;;;5074585;28;20415;-74
2022/11/27 15:13:39;;;;;;;;;;;;;;;;;;5075746;28;19934;-74
2022/11/27 15:16:06;;;;;;;;;;;;;;;;;;5077087;28;20388;-74
2022/11/27 15:18:33;;;;;;;;;;;;;;;;;;5077592;28;19932;-73
2022/11/27 15:20:59;;;;;;;;;;;;;;;;;;5069457;28;19928;-77
2022/11/27 15:23:26;;;;;;;;;;;;;;;;;;5063109;28;19938;-73
2022/11/27 15:25:58;;;;;;;;;;;;;;;;;;5066121;28;19968;-71
2022/11/27 15:28:26;;;;;;;;;;;;;;;;;;5077979;28;20362;-72
2022/11/27 15:30:51;;;;;;;;;;;;;;;;;;5077278;28;19921;-73
2022/11/27 15:33:32;;;;;;;;;;;;;;;;;;5079037;28;19928;-71
2022/11/27 15:36:17;;;;;;;;;;;;;;;;;;5074426;28;19920;-69
2022/11/27 15:38:44;;;;;;;;;;;;;;;;;;5077796;28;19924;-72
2022/11/27 15:41:21;;;;;;;;;;;;;;;;;;5076157;28;20388;-69
2022/11/27 15:43:47;;;;;;;;;;;;;;;;;;5077981;28;19924;-71
2022/11/27 15:46:13;;;;;;;;;;;;;;;;;;5078880;28;19928;-72
2022/11/27 15:48:38;;;;;;;;;;;;;;;;;;5079236;28;20384;-71
2022/11/27 15:51:03;;;;;;;;;;;;;;;;;;5078795;28;19986;-68
2022/11/27 15:53:29;;;;;;;;;;;;;;;;;;5081065;28;20417;-73
2022/11/27 15:55:54;;;;;;;;;;;;;;;;;;5078236;28;19921;-71
2022/11/27 15:58:19;;;;;;;;;;;;;;;;;;5084113;28;20392;-75
2022/11/27 16:00:44;;;;;;;;;;;;;;;;;;5079869;28;19931;-72
2022/11/27 16:03:12;;;;;;;;;;;;;;;;;;5073162;28;19924;-72
2022/11/27 16:05:37;;;;;;;;;;;;;;;;;;5069106;28;20393;-72
2022/11/27 16:08:04;;;;;;;;;;;;;;;;;;5069341;28;19924;-72
2022/11/27 16:10:29;;;;;;;;;;;;;;;;;;5069099;28;19928;-73
2022/11/27 16:12:56;;;;;;;;;;;;;;;;;;5070453;28;19929;-73
2022/11/27 16:15:21;;;;;;;;;;;;;;;;;;5070113;28;19924;-72
2022/11/27 16:17:47;;;;;;;;;;;;;;;;;;5067716;28;19931;-71
2022/11/27 16:20:12;;;;;;;;;;;;;;;;;;5064862;28;19925;-72
2022/11/27 16:22:37;;;;;;;;;;;;;;;;;;5067710;28;19933;-71
2022/11/27 16:25:03;;;;;;;;;;;;;;;;;;5067721;28;20012;-72
2022/11/27 16:27:28;;;;;;;;;;;;;;;;;;5065452;28;20251;-75
2022/11/27 16:29:54;;;;;;;;;;;;;;;;;;5068900;28;19925;-75
2022/11/27 16:32:19;;;;;;;;;;;;;;;;;;5060233;28;20363;-74
2022/11/27 16:34:44;;;;;;;;;;;;;;;;;;5069997;28;19939;-74
2022/11/27 16:37:09;;;;;;;;;;;;;;;;;;5063746;28;19987;-74
2022/11/27 16:39:35;;;;;;;;;;;;;;;;;;5068191;28;19935;-75
2022/11/27 16:42:00;;;;;;;;;;;;;;;;;;5071534;28;19925;-76
2022/11/27 16:44:25;;;;;;;;;;;;;;;;;;5065004;28;19976;-73
2022/11/27 16:46:52;;;;;;;;;;;;;;;;;;5067931;28;19925;-74
2022/11/27 16:49:17;;;;;;;;;;;;;;;;;;5069546;28;19939;-73
2022/11/27 16:51:43;;;;;;;;;;;;;;;;;;5068343;28;19932;-73